Time,TemperatureF,DewpointF,PressureIn,WindDirection,WindDirectionDegrees,WindSpeedMPH,WindSpeedGustMPH,Humidity,HourlyPrecipIn,Conditions,Clouds,dailyrainin,SolarRadiationWatts/m^2,SoftwareType,DateUTC
2013-02-11 00:02:00,43.3,42.8,30.12,SE,145,4.0,6.0,98,0.03,,,0.38,0.0,meteohub,2013-02-11 05:02:00,
2013-02-11 00:08:00,43.7,43.2,30.12,SSW,207,1.0,6.0,98,0.02,,,0.00,0.0,meteohub,2013-02-11 05:08:00,
2013-02-11 00:15:00,43.9,43.3,30.12,SSE,156,6.0,7.0,98,0.02,,,0.00,0.0,meteohub,2013-02-11 05:15:00,
2013-02-11 00:18:00,43.9,43.3,30.12,South,184,4.0,9.0,98,0.02,,,0.00,0.0,meteohub,2013-02-11 05:18:00,
2013-02-11 00:24:00,43.9,43.3,30.12,South,173,4.0,9.0,98,0.03,,,0.01,0.0,meteohub,2013-02-11 05:24:00,
2013-02-11 00:30:00,43.9,43.3,30.11,SSE,161,4.0,9.0,98,0.02,,,0.01,0.0,meteohub,2013-02-11 05:30:00,
2013-02-11 00:36:00,43.9,43.3,30.10,SSE,160,5.0,8.0,98,0.01,,,0.01,0.0,meteohub,2013-02-11 05:36:00,
2013-02-11 00:42:00,43.9,43.3,30.11,South,179,2.0,9.0,98,0.01,,,0.01,0.0,meteohub,2013-02-11 05:42:00,
2013-02-11 00:47:00,43.9,43.3,30.11,South,184,2.0,9.0,98,0.01,,,0.01,0.0,meteohub,2013-02-11 05:47:00,
2013-02-11 00:52:00,43.9,43.3,30.10,SSE,147,6.0,9.0,98,0.01,,,0.01,0.0,meteohub,2013-02-11 05:52:00,
2013-02-11 00:57:00,44.1,43.5,30.11,South,175,0.0,7.0,98,0.01,,,0.01,0.0,meteohub,2013-02-11 05:57:00,
2013-02-11 01:02:00,44.1,43.5,30.11,SSE,160,6.0,7.0,98,0.01,,,0.01,0.0,meteohub,2013-02-11 06:02:00,
2013-02-11 01:07:00,44.2,43.7,30.11,South,186,1.0,7.0,98,0.01,,,0.01,0.0,meteohub,2013-02-11 06:07:00,
2013-02-11 01:12:00,44.4,43.9,30.10,SSE,165,5.0,8.0,98,0.01,,,0.01,0.0,meteohub,2013-02-11 06:12:00,
2013-02-11 01:17:00,45.0,44.8,30.10,South,181,1.0,8.0,99,0.00,,,0.01,0.0,meteohub,2013-02-11 06:17:00,
2013-02-11 01:24:00,45.1,45.0,30.10,SSW,196,3.0,8.0,99,0.00,,,0.01,0.0,meteohub,2013-02-11 06:24:00,
2013-02-11 01:30:00,45.3,44.8,30.09,South,190,0.0,8.0,98,0.00,,,0.01,0.0,meteohub,2013-02-11 06:30:00,
2013-02-11 01:36:00,45.5,45.0,30.08,SSE,159,6.0,8.0,98,0.00,,,0.01,0.0,meteohub,2013-02-11 06:36:00,
2013-02-11 01:42:00,45.3,44.8,30.08,SE,135,1.0,8.0,98,0.00,,,0.01,0.0,meteohub,2013-02-11 06:42:00,
2013-02-11 01:47:00,45.5,45.0,30.08,SSE,156,4.0,6.0,98,0.00,,,0.01,0.0,meteohub,2013-02-11 06:47:00,
2013-02-11 01:52:00,45.7,45.5,30.08,SSE,148,6.0,12.0,99,0.00,,,0.01,0.0,meteohub,2013-02-11 06:52:00,
2013-02-11 01:57:00,45.9,45.7,30.08,South,187,3.0,12.0,99,0.00,,,0.01,0.0,meteohub,2013-02-11 06:57:00,
2013-02-11 02:02:00,46.2,46.0,30.09,South,182,1.0,12.0,99,0.00,,,0.01,0.0,meteohub,2013-02-11 07:02:00,
2013-02-11 02:07:00,46.0,45.9,30.09,SSE,155,0.0,11.0,99,0.00,,,0.01,0.0,meteohub,2013-02-11 07:07:00,
2013-02-11 02:12:00,46.0,45.9,30.09,South,186,2.0,7.0,99,0.00,,,0.01,0.0,meteohub,2013-02-11 07:12:00,
2013-02-11 02:17:00,45.9,45.7,30.09,South,184,2.0,7.0,99,0.00,,,0.01,0.0,meteohub,2013-02-11 07:17:00,
2013-02-11 02:22:00,45.9,45.7,30.09,ESE,112,1.0,5.0,99,0.00,,,0.01,0.0,meteohub,2013-02-11 07:22:00,
2013-02-11 02:27:00,45.9,45.7,30.09,SSE,168,4.0,6.0,99,0.00,,,0.01,0.0,meteohub,2013-02-11 07:27:00,
2013-02-11 02:32:00,45.9,45.7,30.08,South,174,1.0,6.0,99,0.00,,,0.01,0.0,meteohub,2013-02-11 07:32:00,
2013-02-11 02:37:00,45.9,45.7,30.07,SSE,147,0.0,6.0,99,0.00,,,0.01,0.0,meteohub,2013-02-11 07:37:00,
2013-02-11 02:42:00,45.9,45.7,30.07,SSE,161,4.0,6.0,99,0.00,,,0.01,0.0,meteohub,2013-02-11 07:42:00,
2013-02-11 02:47:00,46.0,45.9,30.06,South,191,2.0,7.0,99,0.00,,,0.01,0.0,meteohub,2013-02-11 07:47:00,
2013-02-11 02:52:00,46.0,45.9,30.06,SSW,207,4.0,7.0,99,0.00,,,0.01,0.0,meteohub,2013-02-11 07:52:00,
2013-02-11 02:57:00,46.0,45.9,30.06,South,178,1.0,9.0,99,0.00,,,0.01,0.0,meteohub,2013-02-11 07:57:00,
2013-02-11 03:02:00,46.2,46.0,30.05,SSE,164,2.0,9.0,99,0.01,,,0.02,0.0,meteohub,2013-02-11 08:02:00,
2013-02-11 03:07:00,46.2,46.0,30.04,South,184,3.0,9.0,99,0.01,,,0.02,0.0,meteohub,2013-02-11 08:07:00,
2013-02-11 03:12:00,46.2,46.0,30.03,South,190,1.0,6.0,99,0.01,,,0.02,0.0,meteohub,2013-02-11 08:12:00,
2013-02-11 03:17:00,46.2,46.0,30.04,South,189,2.0,6.0,99,0.01,,,0.02,0.0,meteohub,2013-02-11 08:17:00,
2013-02-11 03:22:00,46.4,46.2,30.04,South,178,5.0,7.0,99,0.01,,,0.02,0.0,meteohub,2013-02-11 08:22:00,
2013-02-11 03:27:00,46.4,46.2,30.04,South,187,3.0,9.0,99,0.01,,,0.02,0.0,meteohub,2013-02-11 08:27:00,
2013-02-11 03:32:00,46.4,46.2,30.03,South,182,3.0,9.0,99,0.01,,,0.02,0.0,meteohub,2013-02-11 08:32:00,
2013-02-11 03:37:00,46.4,46.2,30.03,SSE,163,5.0,9.0,99,0.01,,,0.02,0.0,meteohub,2013-02-11 08:37:00,
2013-02-11 03:42:00,46.4,46.2,30.04,NNE,22,0.0,9.0,99,0.01,,,0.02,0.0,meteohub,2013-02-11 08:42:00,
2013-02-11 03:47:00,46.6,46.4,30.04,SSW,208,1.0,7.0,99,0.01,,,0.02,0.0,meteohub,2013-02-11 08:47:00,
2013-02-11 03:52:00,46.6,46.4,30.04,South,190,2.0,7.0,99,0.01,,,0.02,0.0,meteohub,2013-02-11 08:52:00,
2013-02-11 03:57:00,46.6,46.4,30.04,South,184,0.0,7.0,99,0.01,,,0.02,0.0,meteohub,2013-02-11 08:57:00,
2013-02-11 04:02:00,46.6,46.4,30.03,South,184,3.0,6.0,99,0.00,,,0.02,0.0,meteohub,2013-02-11 09:02:00,
2013-02-11 04:07:00,46.6,46.4,30.03,South,175,2.0,8.0,99,0.00,,,0.02,0.0,meteohub,2013-02-11 09:07:00,
2013-02-11 04:12:00,46.6,46.4,30.02,South,178,4.0,8.0,99,0.01,,,0.02,0.0,meteohub,2013-02-11 09:12:00,
2013-02-11 04:17:00,46.6,46.4,30.04,SSE,160,4.0,8.0,99,0.01,,,0.03,0.0,meteohub,2013-02-11 09:17:00,
2013-02-11 04:22:00,46.8,46.6,30.03,South,175,2.0,8.0,99,0.01,,,0.03,0.0,meteohub,2013-02-11 09:22:00,
2013-02-11 04:27:00,46.6,46.4,30.01,South,176,4.0,8.0,99,0.01,,,0.03,0.0,meteohub,2013-02-11 09:27:00,
2013-02-11 04:32:00,46.6,46.4,30.02,South,177,0.0,8.0,99,0.01,,,0.03,0.0,meteohub,2013-02-11 09:32:00,
2013-02-11 04:37:00,46.6,46.4,30.03,South,181,1.0,6.0,99,0.01,,,0.03,0.0,meteohub,2013-02-11 09:37:00,
2013-02-11 04:42:00,46.6,46.4,30.03,SSE,164,1.0,5.0,99,0.01,,,0.03,0.0,meteohub,2013-02-11 09:42:00,
2013-02-11 04:47:00,46.8,46.6,30.03,SE,142,1.0,7.0,99,0.02,,,0.04,0.0,meteohub,2013-02-11 09:47:00,
2013-02-11 04:52:00,46.8,46.6,30.03,SSE,161,1.0,7.0,99,0.02,,,0.04,0.0,meteohub,2013-02-11 09:52:00,
2013-02-11 04:57:00,46.8,46.6,30.04,South,188,0.0,7.0,99,0.02,,,0.04,0.0,meteohub,2013-02-11 09:57:00,
2013-02-11 05:02:00,46.8,46.6,30.03,South,182,4.0,8.0,99,0.02,,,0.04,0.0,meteohub,2013-02-11 10:02:00,
2013-02-11 05:07:00,46.9,46.8,30.04,SSW,212,2.0,8.0,99,0.02,,,0.04,0.0,meteohub,2013-02-11 10:07:00,
2013-02-11 05:12:00,46.9,46.8,30.04,WSW,257,1.0,8.0,99,0.01,,,0.04,0.0,meteohub,2013-02-11 10:12:00,
2013-02-11 05:17:00,47.1,46.9,30.04,South,186,0.0,7.0,99,0.02,,,0.05,0.0,meteohub,2013-02-11 10:17:00,
2013-02-11 05:22:00,47.3,47.1,30.04,NNW,340,2.0,9.0,99,0.03,,,0.06,0.0,meteohub,2013-02-11 10:22:00,
2013-02-11 05:27:00,47.7,47.5,30.04,South,182,2.0,10.0,99,0.03,,,0.06,0.0,meteohub,2013-02-11 10:27:00,
2013-02-11 05:32:00,47.8,47.7,30.04,SW,219,2.0,10.0,99,0.04,,,0.07,0.0,meteohub,2013-02-11 10:32:00,
2013-02-11 05:37:00,47.8,47.7,30.04,ENE,59,0.0,10.0,99,0.05,,,0.08,0.0,meteohub,2013-02-11 10:37:00,
2013-02-11 05:42:00,47.8,47.7,30.04,ENE,64,1.0,6.0,99,0.06,,,0.09,0.0,meteohub,2013-02-11 10:42:00,
2013-02-11 05:47:00,48.0,47.8,30.03,SW,232,1.0,6.0,99,0.06,,,0.10,0.0,meteohub,2013-02-11 10:47:00,
2013-02-11 05:52:00,48.0,47.8,30.03,ESE,112,1.0,7.0,99,0.06,,,0.10,0.0,meteohub,2013-02-11 10:52:00,
2013-02-11 05:57:00,48.0,47.8,30.03,SSW,198,0.0,7.0,99,0.06,,,0.10,0.0,meteohub,2013-02-11 10:57:00,
2013-02-11 06:02:00,48.2,48.0,30.03,SSE,167,0.0,8.0,99,0.07,,,0.11,0.0,meteohub,2013-02-11 11:02:00,
2013-02-11 06:07:00,48.2,48.0,30.03,West,279,1.0,8.0,99,0.07,,,0.11,0.0,meteohub,2013-02-11 11:07:00,
2013-02-11 06:12:00,48.4,48.2,30.03,West,267,1.0,8.0,99,0.07,,,0.12,0.0,meteohub,2013-02-11 11:12:00,
2013-02-11 06:17:00,48.4,48.2,30.03,SSW,196,0.0,20.0,99,0.08,,,0.13,0.0,meteohub,2013-02-11 11:17:00,
2013-02-11 06:22:00,48.6,48.4,30.03,SW,217,1.0,20.0,99,0.08,,,0.14,0.0,meteohub,2013-02-11 11:22:00,
2013-02-11 06:27:00,48.6,48.4,30.03,SW,236,0.0,7.0,99,0.08,,,0.14,0.0,meteohub,2013-02-11 11:27:00,
2013-02-11 06:32:00,48.6,48.4,30.03,SE,128,2.0,6.0,99,0.08,,,0.15,0.0,meteohub,2013-02-11 11:32:00,
2013-02-11 06:37:00,48.6,48.4,30.02,South,184,3.0,5.0,99,0.07,,,0.15,0.0,meteohub,2013-02-11 11:37:00,
2013-02-11 06:42:00,48.6,48.4,30.02,SW,221,1.0,5.0,99,0.06,,,0.15,0.0,meteohub,2013-02-11 11:42:00,
2013-02-11 06:47:00,48.6,48.4,30.01,NNW,339,3.0,6.0,99,0.06,,,0.16,0.0,meteohub,2013-02-11 11:47:00,
2013-02-11 06:52:00,48.6,48.4,30.01,South,190,3.0,6.0,99,0.06,,,0.16,0.0,meteohub,2013-02-11 11:52:00,
2013-02-11 06:57:00,48.6,48.4,30.01,SSW,192,0.0,6.0,99,0.05,,,0.16,0.0,meteohub,2013-02-11 11:57:00,
2013-02-11 07:02:00,48.6,48.4,30.00,SW,221,2.0,5.0,99,0.05,,,0.16,0.0,meteohub,2013-02-11 12:02:00,
2013-02-11 07:07:00,48.6,48.4,30.00,SSW,193,3.0,6.0,99,0.05,,,0.16,0.0,meteohub,2013-02-11 12:07:00,
2013-02-11 07:12:00,48.4,48.2,29.99,South,189,1.0,9.0,99,0.03,,,0.16,0.0,meteohub,2013-02-11 12:12:00,
2013-02-11 07:17:00,48.4,48.2,29.99,NNW,327,3.0,9.0,99,0.02,,,0.16,0.0,meteohub,2013-02-11 12:17:00,
2013-02-11 07:22:00,48.4,48.2,29.99,SSW,194,1.0,9.0,99,0.02,,,0.16,0.0,meteohub,2013-02-11 12:22:00,
2013-02-11 07:27:00,48.6,48.4,30.00,SW,219,1.0,6.0,99,0.02,,,0.16,0.0,meteohub,2013-02-11 12:27:00,
2013-02-11 07:32:00,48.6,48.4,30.01,SW,226,11.0,11.0,99,0.01,,,0.16,0.0,meteohub,2013-02-11 12:32:00,
2013-02-11 07:37:00,48.7,48.6,30.02,SE,146,4.0,12.0,99,0.01,,,0.16,0.0,meteohub,2013-02-11 12:37:00,
2013-02-11 07:42:00,48.6,48.4,30.02,SSE,161,0.0,12.0,99,0.01,,,0.16,0.0,meteohub,2013-02-11 12:42:00,
2013-02-11 07:47:00,48.6,48.4,30.03,South,186,0.0,12.0,99,0.00,,,0.16,5.0,meteohub,2013-02-11 12:47:00,
2013-02-11 07:52:00,48.6,48.4,30.03,SSE,148,0.0,6.0,99,0.00,,,0.16,5.0,meteohub,2013-02-11 12:52:00,
2013-02-11 07:57:00,48.6,48.4,30.03,SW,232,2.0,6.0,99,0.00,,,0.16,7.0,meteohub,2013-02-11 12:57:00,
2013-02-11 08:02:00,48.6,48.4,30.03,SE,146,0.0,10.0,99,0.00,,,0.16,7.0,meteohub,2013-02-11 13:02:00,
2013-02-11 08:08:00,48.6,48.4,30.02,SSW,198,0.0,10.0,99,0.00,,,0.16,16.0,meteohub,2013-02-11 13:08:00,
2013-02-11 08:15:00,48.6,48.4,30.03,SSW,194,0.0,10.0,99,0.01,,,0.17,11.0,meteohub,2013-02-11 13:15:00,
2013-02-11 08:21:00,48.6,48.4,30.03,South,191,0.0,7.0,99,0.01,,,0.17,12.0,meteohub,2013-02-11 13:21:00,
2013-02-11 08:27:00,48.6,48.4,30.03,SSW,205,1.0,8.0,99,0.01,,,0.17,14.0,meteohub,2013-02-11 13:27:00,
2013-02-11 08:32:00,48.6,48.4,30.03,SE,143,0.0,8.0,99,0.01,,,0.17,18.0,meteohub,2013-02-11 13:32:00,
2013-02-11 08:37:00,48.6,48.4,30.03,SSW,207,0.0,5.0,99,0.01,,,0.17,25.0,meteohub,2013-02-11 13:37:00,
2013-02-11 08:42:00,48.6,48.4,30.02,SSW,195,0.0,6.0,99,0.01,,,0.17,26.0,meteohub,2013-02-11 13:42:00,
2013-02-11 08:47:00,48.7,48.6,30.03,South,182,3.0,6.0,99,0.01,,,0.17,25.0,meteohub,2013-02-11 13:47:00,
2013-02-11 08:52:00,48.7,48.6,30.02,NNE,18,2.0,6.0,99,0.01,,,0.17,23.0,meteohub,2013-02-11 13:52:00,
2013-02-11 08:57:00,48.7,48.6,30.02,SSW,199,0.0,6.0,99,0.01,,,0.17,23.0,meteohub,2013-02-11 13:57:00,
2013-02-11 09:02:00,48.9,48.7,30.02,SW,228,2.0,10.0,99,0.01,,,0.17,32.0,meteohub,2013-02-11 14:02:00,
2013-02-11 09:07:00,48.9,48.7,30.01,SSW,194,2.0,10.0,99,0.01,,,0.17,35.0,meteohub,2013-02-11 14:07:00,
2013-02-11 09:12:00,48.9,48.7,30.01,SSW,200,2.0,10.0,99,0.00,,,0.17,26.0,meteohub,2013-02-11 14:12:00,
2013-02-11 09:17:00,49.1,48.9,30.01,West,264,2.0,10.0,99,0.00,,,0.17,37.0,meteohub,2013-02-11 14:17:00,
2013-02-11 09:22:00,49.1,48.9,30.02,South,173,2.0,10.0,99,0.00,,,0.17,23.0,meteohub,2013-02-11 14:22:00,
2013-02-11 09:27:00,49.3,49.1,30.01,SSW,205,3.0,6.0,99,0.00,,,0.17,53.0,meteohub,2013-02-11 14:27:00,
2013-02-11 09:32:00,49.5,49.3,30.00,SSE,161,5.0,12.0,99,0.00,,,0.17,139.0,meteohub,2013-02-11 14:32:00,
2013-02-11 09:37:00,50.0,49.6,30.00,SSW,202,3.0,13.0,99,0.00,,,0.17,125.0,meteohub,2013-02-11 14:37:00,
2013-02-11 09:42:00,50.2,49.8,29.99,South,184,2.0,13.0,99,0.00,,,0.17,84.0,meteohub,2013-02-11 14:42:00,
2013-02-11 09:47:00,50.4,50.0,29.99,WSW,250,2.0,13.0,99,0.00,,,0.17,67.0,meteohub,2013-02-11 14:47:00,
2013-02-11 09:52:00,50.4,50.0,29.99,WSW,248,3.0,7.0,99,0.00,,,0.17,169.0,meteohub,2013-02-11 14:52:00,
2013-02-11 09:57:00,50.7,50.4,29.99,SSE,159,4.0,7.0,99,0.00,,,0.17,239.0,meteohub,2013-02-11 14:57:00,
2013-02-11 10:02:00,51.1,50.7,29.99,South,178,4.0,14.0,99,0.00,,,0.17,207.0,meteohub,2013-02-11 15:02:00,
2013-02-11 10:07:00,51.3,50.9,29.99,South,171,6.0,14.0,99,0.00,,,0.17,79.0,meteohub,2013-02-11 15:07:00,
2013-02-11 10:12:00,51.3,50.9,29.99,SSW,200,3.0,14.0,99,0.00,,,0.17,98.0,meteohub,2013-02-11 15:12:00,
2013-02-11 10:17:00,51.4,51.1,29.98,SSW,198,0.0,8.0,99,0.00,,,0.17,204.0,meteohub,2013-02-11 15:17:00,
2013-02-11 10:22:00,51.6,51.3,29.99,NE,45,2.0,8.0,99,0.00,,,0.17,223.0,meteohub,2013-02-11 15:22:00,
2013-02-11 10:27:00,52.0,51.6,29.99,South,171,4.0,8.0,99,0.00,,,0.17,130.0,meteohub,2013-02-11 15:27:00,
2013-02-11 10:32:00,52.0,51.6,29.99,South,169,4.0,8.0,99,0.00,,,0.17,146.0,meteohub,2013-02-11 15:32:00,
2013-02-11 10:37:00,51.8,51.4,29.99,South,171,1.0,10.0,99,0.00,,,0.17,97.0,meteohub,2013-02-11 15:37:00,
2013-02-11 10:42:00,51.4,51.1,29.99,SW,220,3.0,12.0,99,0.00,,,0.17,107.0,meteohub,2013-02-11 15:42:00,
2013-02-11 10:47:00,51.3,50.9,30.00,SSW,196,2.0,13.0,99,0.00,,,0.17,63.0,meteohub,2013-02-11 15:47:00,
2013-02-11 10:52:00,51.1,50.7,30.00,SSW,197,2.0,13.0,99,0.00,,,0.17,69.0,meteohub,2013-02-11 15:52:00,
2013-02-11 10:57:00,50.9,50.5,30.01,NNW,346,2.0,9.0,99,0.00,,,0.17,74.0,meteohub,2013-02-11 15:57:00,
2013-02-11 11:02:00,51.1,50.7,30.00,SW,228,2.0,11.0,99,0.01,,,0.18,90.0,meteohub,2013-02-11 16:02:00,
2013-02-11 11:07:00,51.1,50.7,30.01,SE,132,7.0,11.0,99,0.01,,,0.18,76.0,meteohub,2013-02-11 16:07:00,
2013-02-11 11:12:00,51.1,50.7,30.00,WSW,246,1.0,11.0,99,0.01,,,0.18,49.0,meteohub,2013-02-11 16:12:00,
2013-02-11 11:17:00,50.9,50.5,30.00,SW,229,2.0,16.0,99,0.02,,,0.19,58.0,meteohub,2013-02-11 16:17:00,
2013-02-11 11:22:00,50.7,50.4,30.00,South,180,2.0,16.0,99,0.02,,,0.19,53.0,meteohub,2013-02-11 16:22:00,
2013-02-11 11:27:00,50.5,50.2,30.00,SSW,201,0.0,16.0,99,0.02,,,0.19,35.0,meteohub,2013-02-11 16:27:00,
2013-02-11 11:32:00,50.5,50.2,30.01,SSE,163,5.0,11.0,99,0.02,,,0.19,42.0,meteohub,2013-02-11 16:32:00,
2013-02-11 11:37:00,50.5,50.2,30.01,SE,135,7.0,11.0,99,0.02,,,0.19,46.0,meteohub,2013-02-11 16:37:00,
2013-02-11 11:42:00,50.5,50.2,30.01,ESE,122,0.0,22.0,99,0.02,,,0.19,72.0,meteohub,2013-02-11 16:42:00,
2013-02-11 11:47:00,50.7,50.4,30.01,North,0,0.0,22.0,99,0.03,,,0.20,76.0,meteohub,2013-02-11 16:47:00,
2013-02-11 11:52:00,50.7,50.4,30.00,ESE,104,1.0,22.0,99,0.03,,,0.20,47.0,meteohub,2013-02-11 16:52:00,
2013-02-11 11:57:00,50.7,50.4,30.00,SE,137,2.0,8.0,99,0.02,,,0.20,42.0,meteohub,2013-02-11 16:57:00,
2013-02-11 12:02:00,50.7,50.4,30.00,SW,226,1.0,10.0,99,0.03,,,0.21,47.0,meteohub,2013-02-11 17:02:00,
2013-02-11 12:07:00,50.7,50.4,29.99,SW,214,8.0,11.0,99,0.03,,,0.21,76.0,meteohub,2013-02-11 17:07:00,
2013-02-11 12:12:00,50.9,50.5,29.99,SE,138,0.0,14.0,99,0.03,,,0.21,51.0,meteohub,2013-02-11 17:12:00,
2013-02-11 12:17:00,50.9,50.5,29.98,South,176,1.0,14.0,99,0.02,,,0.21,56.0,meteohub,2013-02-11 17:17:00,
2013-02-11 12:22:00,51.1,50.7,29.97,South,179,5.0,14.0,99,0.03,,,0.22,93.0,meteohub,2013-02-11 17:22:00,
2013-02-11 12:27:00,51.1,50.7,29.97,North,355,1.0,11.0,99,0.03,,,0.22,105.0,meteohub,2013-02-11 17:27:00,
2013-02-11 12:32:00,51.1,50.7,29.97,WSW,245,1.0,13.0,99,0.03,,,0.22,63.0,meteohub,2013-02-11 17:32:00,
2013-02-11 12:37:00,51.1,50.7,29.98,WSW,242,2.0,13.0,99,0.03,,,0.22,53.0,meteohub,2013-02-11 17:37:00,
2013-02-11 12:42:00,50.7,50.4,29.98,South,175,4.0,13.0,99,0.02,,,0.22,67.0,meteohub,2013-02-11 17:42:00,
2013-02-11 12:47:00,50.5,50.2,29.97,SSW,194,0.0,6.0,99,0.02,,,0.22,81.0,meteohub,2013-02-11 17:47:00,
2013-02-11 12:52:00,50.5,50.2,29.96,SW,223,1.0,7.0,99,0.02,,,0.22,81.0,meteohub,2013-02-11 17:52:00,
2013-02-11 12:57:00,50.5,50.2,29.96,West,265,0.0,19.0,99,0.01,,,0.22,60.0,meteohub,2013-02-11 17:57:00,
2013-02-11 13:02:00,50.4,50.0,29.96,South,187,1.0,19.0,99,0.01,,,0.22,51.0,meteohub,2013-02-11 18:02:00,
2013-02-11 13:07:00,50.4,50.0,29.96,SSE,163,2.0,19.0,99,0.01,,,0.22,54.0,meteohub,2013-02-11 18:07:00,
2013-02-11 13:12:00,50.4,50.0,29.96,WSW,240,5.0,11.0,99,0.01,,,0.22,69.0,meteohub,2013-02-11 18:12:00,
2013-02-11 13:17:00,50.4,50.0,29.96,WSW,255,1.0,9.0,99,0.00,,,0.22,60.0,meteohub,2013-02-11 18:17:00,
2013-02-11 13:22:00,50.4,50.0,29.96,South,188,2.0,10.0,99,0.00,,,0.22,62.0,meteohub,2013-02-11 18:22:00,
2013-02-11 13:27:00,50.4,50.0,29.97,WSW,254,3.0,14.0,99,0.00,,,0.22,46.0,meteohub,2013-02-11 18:27:00,
2013-02-11 13:32:00,50.4,50.0,29.97,SW,220,2.0,14.0,99,0.00,,,0.22,44.0,meteohub,2013-02-11 18:32:00,
2013-02-11 13:37:00,50.2,49.8,29.96,SSE,167,5.0,14.0,99,0.00,,,0.22,76.0,meteohub,2013-02-11 18:37:00,
2013-02-11 13:43:00,50.4,50.0,29.96,SW,225,2.0,12.0,99,0.00,,,0.22,90.0,meteohub,2013-02-11 18:43:00,
2013-02-11 13:50:00,50.4,50.0,29.97,SSW,194,3.0,13.0,99,0.00,,,0.22,84.0,meteohub,2013-02-11 18:50:00,
2013-02-11 13:56:00,50.5,50.2,29.97,SSE,164,7.0,13.0,99,0.00,,,0.22,84.0,meteohub,2013-02-11 18:56:00,
2013-02-11 14:02:00,50.5,50.2,29.96,SSW,201,2.0,10.0,99,0.00,,,0.22,104.0,meteohub,2013-02-11 19:02:00,
2013-02-11 14:07:00,50.5,50.2,29.96,South,190,2.0,12.0,99,0.00,,,0.22,98.0,meteohub,2013-02-11 19:07:00,
2013-02-11 14:12:00,50.5,50.2,29.94,SSW,209,2.0,13.0,99,0.00,,,0.22,88.0,meteohub,2013-02-11 19:12:00,
2013-02-11 14:17:00,50.7,50.4,29.94,South,180,1.0,13.0,99,0.00,,,0.22,95.0,meteohub,2013-02-11 19:17:00,
2013-02-11 14:22:00,50.7,50.4,29.94,SSW,192,2.0,13.0,99,0.00,,,0.22,104.0,meteohub,2013-02-11 19:22:00,
2013-02-11 14:27:00,50.9,50.5,29.94,SSE,159,1.0,11.0,99,0.00,,,0.22,93.0,meteohub,2013-02-11 19:27:00,
2013-02-11 14:32:00,50.9,50.5,29.94,South,186,1.0,10.0,99,0.00,,,0.22,95.0,meteohub,2013-02-11 19:32:00,
2013-02-11 14:37:00,50.7,50.4,29.94,West,261,2.0,5.0,99,0.00,,,0.22,123.0,meteohub,2013-02-11 19:37:00,
2013-02-11 14:42:00,51.1,50.7,29.94,SSW,194,1.0,8.0,99,0.00,,,0.22,121.0,meteohub,2013-02-11 19:42:00,
2013-02-11 14:47:00,51.1,50.7,29.94,SW,227,1.0,8.0,99,0.00,,,0.22,121.0,meteohub,2013-02-11 19:47:00,
2013-02-11 14:52:00,51.1,50.7,29.94,SW,236,1.0,7.0,99,0.00,,,0.22,98.0,meteohub,2013-02-11 19:52:00,
2013-02-11 14:57:00,51.1,50.7,29.94,South,184,2.0,6.0,99,0.00,,,0.22,104.0,meteohub,2013-02-11 19:57:00,
2013-02-11 15:02:00,51.3,50.9,29.94,SSW,213,1.0,7.0,99,0.00,,,0.22,113.0,meteohub,2013-02-11 20:02:00,
2013-02-11 15:07:00,51.3,50.9,29.93,South,185,2.0,7.0,99,0.00,,,0.22,79.0,meteohub,2013-02-11 20:07:00,
2013-02-11 15:12:00,51.1,50.7,29.93,WSW,252,2.0,6.0,99,0.00,,,0.22,77.0,meteohub,2013-02-11 20:12:00,
2013-02-11 15:17:00,51.1,50.7,29.94,SSE,148,1.0,6.0,99,0.00,,,0.22,77.0,meteohub,2013-02-11 20:17:00,
2013-02-11 15:22:00,51.1,50.7,29.94,SSW,196,0.0,13.0,99,0.00,,,0.22,83.0,meteohub,2013-02-11 20:22:00,
2013-02-11 15:27:00,51.1,50.7,29.94,South,181,3.0,13.0,99,0.00,,,0.22,70.0,meteohub,2013-02-11 20:27:00,
2013-02-11 15:32:00,51.1,50.7,29.94,North,355,0.0,7.0,99,0.00,,,0.22,84.0,meteohub,2013-02-11 20:32:00,
2013-02-11 15:37:00,51.1,50.7,29.94,South,184,0.0,7.0,99,0.00,,,0.22,67.0,meteohub,2013-02-11 20:37:00,
2013-02-11 15:42:00,51.1,50.7,29.94,SE,139,0.0,7.0,99,0.00,,,0.22,51.0,meteohub,2013-02-11 20:42:00,
2013-02-11 15:47:00,50.9,50.5,29.94,WSW,241,2.0,8.0,99,0.00,,,0.22,54.0,meteohub,2013-02-11 20:47:00,
2013-02-11 15:52:00,50.7,50.4,29.94,WSW,243,1.0,18.0,99,0.00,,,0.22,46.0,meteohub,2013-02-11 20:52:00,
2013-02-11 15:57:00,50.7,50.4,29.94,South,180,1.0,18.0,99,0.00,,,0.22,47.0,meteohub,2013-02-11 20:57:00,
2013-02-11 16:02:00,50.7,50.4,29.94,SSE,165,2.0,15.0,99,0.00,,,0.22,40.0,meteohub,2013-02-11 21:02:00,
2013-02-11 16:07:00,50.7,50.4,29.94,South,175,4.0,9.0,99,0.00,,,0.22,30.0,meteohub,2013-02-11 21:07:00,
2013-02-11 16:12:00,50.7,50.4,29.92,SE,130,0.0,5.0,99,0.00,,,0.22,46.0,meteohub,2013-02-11 21:12:00,
2013-02-11 16:17:00,50.7,50.4,29.92,NNW,336,2.0,7.0,99,0.00,,,0.22,53.0,meteohub,2013-02-11 21:17:00,
2013-02-11 16:22:00,50.5,50.2,29.92,South,188,0.0,7.0,99,0.00,,,0.22,67.0,meteohub,2013-02-11 21:22:00,
2013-02-11 16:27:00,50.5,50.2,29.93,South,175,0.0,7.0,99,0.00,,,0.22,76.0,meteohub,2013-02-11 21:27:00,
2013-02-11 16:32:00,50.5,50.2,29.92,SW,225,0.0,5.0,99,0.00,,,0.22,56.0,meteohub,2013-02-11 21:32:00,
2013-02-11 16:37:00,50.5,50.2,29.92,South,183,0.0,5.0,99,0.00,,,0.22,51.0,meteohub,2013-02-11 21:37:00,
2013-02-11 16:42:00,50.5,50.2,29.92,North,5,0.0,5.0,99,0.00,,,0.22,56.0,meteohub,2013-02-11 21:42:00,
2013-02-11 16:47:00,50.4,50.0,29.93,NE,39,0.0,5.0,99,0.00,,,0.22,56.0,meteohub,2013-02-11 21:47:00,
2013-02-11 16:52:00,50.4,50.0,29.93,SE,124,0.0,5.0,99,0.00,,,0.22,46.0,meteohub,2013-02-11 21:52:00,
2013-02-11 16:57:00,50.2,49.8,29.93,West,272,1.0,4.0,99,0.00,,,0.22,37.0,meteohub,2013-02-11 21:57:00,
2013-02-11 17:02:00,50.0,49.6,29.93,SW,234,1.0,4.0,99,0.00,,,0.22,39.0,meteohub,2013-02-11 22:02:00,
2013-02-11 17:07:00,49.8,49.5,29.93,SW,233,0.0,4.0,99,0.00,,,0.22,39.0,meteohub,2013-02-11 22:07:00,
2013-02-11 17:12:00,49.8,49.5,29.94,SSW,202,0.0,4.0,99,0.00,,,0.22,28.0,meteohub,2013-02-11 22:12:00,
2013-02-11 17:17:00,49.6,49.5,29.94,WSW,245,0.0,5.0,99,0.00,,,0.22,21.0,meteohub,2013-02-11 22:17:00,
2013-02-11 17:22:00,49.5,49.3,29.94,SSW,205,0.0,5.0,99,0.00,,,0.22,21.0,meteohub,2013-02-11 22:22:00,
2013-02-11 17:27:00,49.3,49.1,29.94,SW,234,0.0,5.0,99,0.00,,,0.22,18.0,meteohub,2013-02-11 22:27:00,
2013-02-11 17:32:00,49.1,48.9,29.94,SW,234,1.0,7.0,99,0.00,,,0.22,18.0,meteohub,2013-02-11 22:32:00,
2013-02-11 17:37:00,49.1,48.9,29.94,South,188,1.0,7.0,99,0.00,,,0.22,12.0,meteohub,2013-02-11 22:37:00,
2013-02-11 17:42:00,48.9,48.7,29.93,East,92,0.0,2.0,99,0.00,,,0.22,9.0,meteohub,2013-02-11 22:42:00,
2013-02-11 17:47:00,48.9,48.7,29.93,ESE,104,0.0,2.0,99,0.00,,,0.22,9.0,meteohub,2013-02-11 22:47:00,
2013-02-11 17:52:00,48.9,48.7,29.94,WNW,286,0.0,3.0,99,0.00,,,0.22,5.0,meteohub,2013-02-11 22:52:00,
2013-02-11 17:57:00,48.9,48.7,29.94,WNW,285,0.0,3.0,99,0.00,,,0.22,0.0,meteohub,2013-02-11 22:57:00,
2013-02-11 18:02:00,48.9,48.7,29.95,North,5,1.0,3.0,99,0.00,,,0.22,0.0,meteohub,2013-02-11 23:02:00,
2013-02-11 18:07:00,48.9,48.7,29.93,North,5,0.0,3.0,99,0.00,,,0.22,0.0,meteohub,2013-02-11 23:07:00,
2013-02-11 18:12:00,48.7,48.6,29.96,North,5,0.0,3.0,99,0.00,,,0.22,0.0,meteohub,2013-02-11 23:12:00,
2013-02-11 18:17:00,48.7,48.6,29.95,North,5,1.0,3.0,99,0.00,,,0.22,0.0,meteohub,2013-02-11 23:17:00,
2013-02-11 18:22:00,48.7,48.6,29.96,North,5,0.0,1.0,99,0.00,,,0.22,0.0,meteohub,2013-02-11 23:22:00,
2013-02-11 18:27:00,48.7,48.6,29.95,South,186,0.0,1.0,99,0.00,,,0.22,0.0,meteohub,2013-02-11 23:27:00,
2013-02-11 18:32:00,48.7,48.6,29.95,East,92,0.0,5.0,99,0.00,,,0.22,0.0,meteohub,2013-02-11 23:32:00,
2013-02-11 18:37:00,48.7,48.6,29.95,SE,140,0.0,5.0,99,0.00,,,0.22,0.0,meteohub,2013-02-11 23:37:00,
2013-02-11 18:42:00,48.6,48.4,29.95,ESE,117,0.0,7.0,99,0.00,,,0.22,0.0,meteohub,2013-02-11 23:42:00,
2013-02-11 18:49:00,48.6,48.4,29.96,ESE,117,0.0,7.0,99,0.00,,,0.22,0.0,meteohub,2013-02-11 23:49:00,
2013-02-11 18:55:00,48.2,48.0,29.96,NW,312,0.0,2.0,99,0.00,,,0.22,0.0,meteohub,2013-02-11 23:55:00,
2013-02-11 19:01:00,48.0,47.8,29.96,North,355,0.0,6.0,99,0.00,,,0.22,0.0,meteohub,2013-02-12 00:01:00,
2013-02-11 19:07:00,48.0,47.8,29.96,ENE,65,0.0,6.0,99,0.00,,,0.22,0.0,meteohub,2013-02-12 00:07:00,
2013-02-11 19:12:00,48.0,47.8,29.96,WNW,302,1.0,6.0,99,0.00,,,0.22,0.0,meteohub,2013-02-12 00:12:00,
2013-02-11 19:17:00,47.8,47.7,29.96,East,82,0.0,4.0,99,0.00,,,0.22,0.0,meteohub,2013-02-12 00:17:00,
2013-02-11 19:22:00,47.8,47.7,29.96,NNE,32,2.0,4.0,99,0.00,,,0.22,0.0,meteohub,2013-02-12 00:22:00,
2013-02-11 19:27:00,47.8,47.7,29.97,NNE,13,0.0,4.0,99,0.00,,,0.22,0.0,meteohub,2013-02-12 00:27:00,
2013-02-11 19:32:00,47.8,47.7,29.97,NE,43,0.0,4.0,99,0.00,,,0.22,0.0,meteohub,2013-02-12 00:32:00,
2013-02-11 19:37:00,47.7,47.5,29.96,NE,40,0.0,4.0,99,0.00,,,0.22,0.0,meteohub,2013-02-12 00:37:00,
2013-02-11 19:42:00,47.5,47.3,29.96,SE,144,0.0,4.0,99,0.00,,,0.22,0.0,meteohub,2013-02-12 00:42:00,
2013-02-11 19:47:00,47.5,47.3,29.96,South,180,1.0,2.0,99,0.00,,,0.22,0.0,meteohub,2013-02-12 00:47:00,
2013-02-11 19:52:00,47.3,47.1,29.96,WSW,252,1.0,2.0,99,0.00,,,0.22,0.0,meteohub,2013-02-12 00:52:00,
2013-02-11 19:57:00,47.1,46.6,29.96,SW,224,1.0,5.0,98,0.00,,,0.22,0.0,meteohub,2013-02-12 00:57:00,
2013-02-11 20:02:00,47.1,46.6,29.96,SSW,210,0.0,5.0,98,0.00,,,0.22,0.0,meteohub,2013-02-12 01:02:00,
2013-02-11 20:07:00,46.8,46.2,29.96,WSW,247,0.0,5.0,98,0.00,,,0.22,0.0,meteohub,2013-02-12 01:07:00,
2013-02-11 20:12:00,46.6,46.0,29.96,WSW,254,1.0,3.0,98,0.00,,,0.22,0.0,meteohub,2013-02-12 01:12:00,
2013-02-11 20:17:00,46.4,45.9,29.96,NNE,29,0.0,3.0,98,0.00,,,0.22,0.0,meteohub,2013-02-12 01:17:00,
2013-02-11 20:22:00,46.2,45.7,29.96,NNE,29,2.0,3.0,98,0.00,,,0.22,0.0,meteohub,2013-02-12 01:22:00,
2013-02-11 20:27:00,46.0,45.5,29.96,NNE,29,0.0,3.0,98,0.00,,,0.22,0.0,meteohub,2013-02-12 01:27:00,
2013-02-11 20:32:00,45.9,45.3,29.96,NNE,29,1.0,3.0,98,0.00,,,0.22,0.0,meteohub,2013-02-12 01:32:00,
2013-02-11 20:37:00,45.7,45.1,29.96,NNE,29,1.0,2.0,98,0.00,,,0.22,0.0,meteohub,2013-02-12 01:37:00,
2013-02-11 20:42:00,45.3,44.8,29.96,NNE,28,2.0,3.0,98,0.00,,,0.22,0.0,meteohub,2013-02-12 01:42:00,
2013-02-11 20:47:00,45.1,44.6,29.96,NNE,28,0.0,3.0,98,0.00,,,0.22,0.0,meteohub,2013-02-12 01:47:00,
2013-02-11 20:52:00,45.0,44.4,29.96,NNE,28,0.0,3.0,98,0.00,,,0.22,0.0,meteohub,2013-02-12 01:52:00,
2013-02-11 20:57:00,45.0,44.4,29.97,NNE,28,0.0,2.0,98,0.00,,,0.22,0.0,meteohub,2013-02-12 01:57:00,
2013-02-11 21:02:00,45.0,44.4,29.97,NNE,28,0.0,2.0,98,0.00,,,0.22,0.0,meteohub,2013-02-12 02:02:00,
2013-02-11 21:07:00,44.8,44.2,29.96,NNE,28,0.0,1.0,98,0.00,,,0.22,0.0,meteohub,2013-02-12 02:07:00,
2013-02-11 21:12:00,44.4,43.9,29.96,North,351,2.0,2.0,98,0.00,,,0.22,0.0,meteohub,2013-02-12 02:12:00,
2013-02-11 21:17:00,44.4,43.9,29.96,North,11,1.0,3.0,98,0.00,,,0.22,0.0,meteohub,2013-02-12 02:17:00,
2013-02-11 21:22:00,44.4,43.9,29.96,NE,36,1.0,4.0,98,0.00,,,0.22,0.0,meteohub,2013-02-12 02:22:00,
2013-02-11 21:27:00,44.4,43.9,29.96,NE,36,0.0,4.0,98,0.00,,,0.22,0.0,meteohub,2013-02-12 02:27:00,
2013-02-11 21:32:00,44.4,43.9,29.97,NE,36,0.0,3.0,98,0.00,,,0.22,0.0,meteohub,2013-02-12 02:32:00,
2013-02-11 21:37:00,44.2,43.7,29.97,NE,36,0.0,2.0,98,0.00,,,0.22,0.0,meteohub,2013-02-12 02:37:00,
2013-02-11 21:42:00,44.2,43.7,29.97,NE,36,0.0,2.0,98,0.00,,,0.22,0.0,meteohub,2013-02-12 02:42:00,
2013-02-11 21:47:00,44.2,43.7,29.97,NE,36,0.0,1.0,98,0.00,,,0.22,0.0,meteohub,2013-02-12 02:47:00,
2013-02-11 21:52:00,44.2,43.7,29.97,NE,36,0.0,1.0,98,0.00,,,0.22,0.0,meteohub,2013-02-12 02:52:00,
2013-02-11 21:57:00,44.1,43.5,29.96,NE,36,0.0,1.0,98,0.00,,,0.22,0.0,meteohub,2013-02-12 02:57:00,
2013-02-11 22:02:00,44.1,43.5,29.96,NE,36,1.0,1.0,98,0.00,,,0.22,0.0,meteohub,2013-02-12 03:02:00,
2013-02-11 22:07:00,44.1,43.5,29.96,NNE,27,1.0,2.0,98,0.00,,,0.22,0.0,meteohub,2013-02-12 03:07:00,
2013-02-11 22:14:00,43.9,42.8,29.95,North,5,1.0,3.0,96,0.00,,,0.22,0.0,meteohub,2013-02-12 03:14:00,
2013-02-11 22:20:00,43.9,41.7,29.94,North,5,2.0,3.0,92,0.00,,,0.22,0.0,meteohub,2013-02-12 03:20:00,
2013-02-11 22:26:00,44.2,39.4,29.94,North,355,4.0,9.0,83,0.00,,,0.22,0.0,meteohub,2013-02-12 03:26:00,
2013-02-11 22:32:00,45.0,38.5,29.94,NNW,346,5.0,12.0,78,0.00,,,0.22,0.0,meteohub,2013-02-12 03:32:00,
2013-02-11 22:37:00,45.5,37.0,29.94,North,355,5.0,14.0,72,0.00,,,0.22,0.0,meteohub,2013-02-12 03:37:00,
2013-02-11 22:42:00,45.7,38.5,29.94,North,355,3.0,14.0,76,0.00,,,0.22,0.0,meteohub,2013-02-12 03:42:00,
2013-02-11 22:47:00,45.5,35.6,29.94,North,355,2.0,14.0,68,0.00,,,0.22,0.0,meteohub,2013-02-12 03:47:00,
2013-02-11 22:52:00,45.7,36.9,29.94,North,355,2.0,12.0,71,0.00,,,0.22,0.0,meteohub,2013-02-12 03:52:00,
2013-02-11 22:57:00,45.1,37.9,29.94,North,5,1.0,10.0,76,0.00,,,0.22,0.0,meteohub,2013-02-12 03:57:00,
2013-02-11 23:02:00,44.4,35.6,29.94,NNW,328,3.0,5.0,71,0.00,,,0.22,0.0,meteohub,2013-02-12 04:02:00,
2013-02-11 23:07:00,45.0,32.7,29.93,NNW,331,2.0,4.0,62,0.00,,,0.22,0.0,meteohub,2013-02-12 04:07:00,
2013-02-11 23:12:00,45.9,33.6,29.93,NNE,19,0.0,11.0,62,0.00,,,0.22,0.0,meteohub,2013-02-12 04:12:00,
2013-02-11 23:17:00,46.0,33.3,29.94,North,350,2.0,11.0,61,0.00,,,0.22,0.0,meteohub,2013-02-12 04:17:00,
2013-02-11 23:22:00,46.0,32.0,29.94,SW,235,1.0,8.0,58,0.00,,,0.22,0.0,meteohub,2013-02-12 04:22:00,
2013-02-11 23:27:00,46.2,31.5,29.94,SW,220,2.0,8.0,56,0.00,,,0.22,0.0,meteohub,2013-02-12 04:27:00,
2013-02-11 23:32:00,46.4,32.0,29.94,West,273,3.0,8.0,57,0.00,,,0.22,0.0,meteohub,2013-02-12 04:32:00,
2013-02-11 23:37:00,46.4,31.1,29.94,North,5,0.0,14.0,55,0.00,,,0.22,0.0,meteohub,2013-02-12 04:37:00,
2013-02-11 23:42:00,46.4,30.7,29.94,SW,226,3.0,14.0,54,0.00,,,0.22,0.0,meteohub,2013-02-12 04:42:00,
2013-02-11 23:47:00,46.4,30.2,29.94,NNW,338,2.0,13.0,53,0.00,,,0.22,0.0,meteohub,2013-02-12 04:47:00,
2013-02-11 23:52:00,46.6,29.8,29.95,NNW,338,0.0,13.0,52,0.00,,,0.22,0.0,meteohub,2013-02-12 04:52:00,
2013-02-11 23:57:00,46.2,32.2,29.96,North,0,2.0,6.0,58,0.00,,,0.22,0.0,meteohub,2013-02-12 04:57:00,